sensor_id;sensor_type;location;lat;lon;timestamp;pressure;altitude;pressure_sealevel;temperature;humidity
49723;BME280;43484;43.608;1.458;2022-07-29T00:00:00;99721.56;;;23.44;100.00
49723;BME280;43484;43.608;1.458;2022-07-29T00:02:27;99726.84;;;23.43;100.00
49723;BME280;43484;43.608;1.458;2022-07-29T00:04:54;99726.03;;;23.39;100.00
49723;BME280;43484;43.608;1.458;2022-07-29T00:07:21;99730.06;;;23.54;100.00
49723;BME280;43484;43.608;1.458;2022-07-29T00:09:48;99731.81;;;23.53;100.00
49723;BME280;43484;43.608;1.458;2022-07-29T00:12:19;99715.00;;;23.64;100.00
49723;BME280;43484;43.608;1.458;2022-07-29T00:14:55;99714.84;;;23.34;100.00
49723;BME280;43484;43.608;1.458;2022-07-29T00:17:23;99711.38;;;23.34;100.00
49723;BME280;43484;43.608;1.458;2022-07-29T00:19:49;99717.06;;;23.13;100.00
49723;BME280;43484;43.608;1.458;2022-07-29T00:22:16;99703.16;;;23.11;100.00
49723;BME280;43484;43.608;1.458;2022-07-29T00:24:43;99687.44;;;23.50;100.00
49723;BME280;43484;43.608;1.458;2022-07-29T00:27:10;99693.59;;;23.11;100.00
49723;BME280;43484;43.608;1.458;2022-07-29T00:29:37;99688.16;;;23.20;100.00
49723;BME280;43484;43.608;1.458;2022-07-29T00:32:04;99671.88;;;23.08;100.00
49723;BME280;43484;43.608;1.458;2022-07-29T00:34:30;99658.50;;;23.21;100.00
49723;BME280;43484;43.608;1.458;2022-07-29T00:37:16;99663.81;;;23.18;100.00
49723;BME280;43484;43.608;1.458;2022-07-29T00:39:42;99652.06;;;22.99;100.00
49723;BME280;43484;43.608;1.458;2022-07-29T00:42:10;99650.03;;;23.12;100.00
49723;BME280;43484;43.608;1.458;2022-07-29T00:44:38;99655.84;;;23.23;100.00
49723;BME280;43484;43.608;1.458;2022-07-29T00:47:06;99667.72;;;22.99;100.00
49723;BME280;43484;43.608;1.458;2022-07-29T00:49:34;99683.28;;;23.05;100.00
49723;BME280;43484;43.608;1.458;2022-07-29T00:52:04;99687.44;;;22.77;100.00
49723;BME280;43484;43.608;1.458;2022-07-29T00:54:32;99694.59;;;22.68;100.00
49723;BME280;43484;43.608;1.458;2022-07-29T00:56:59;99683.28;;;23.05;100.00
49723;BME280;43484;43.608;1.458;2022-07-29T00:59:27;99684.25;;;23.01;100.00
49723;BME280;43484;43.608;1.458;2022-07-29T01:02:02;99676.06;;;22.78;100.00
49723;BME280;43484;43.608;1.458;2022-07-29T01:04:29;99673.34;;;22.83;100.00
49723;BME280;43484;43.608;1.458;2022-07-29T01:06:57;99638.47;;;22.85;100.00
49723;BME280;43484;43.608;1.458;2022-07-29T01:09:25;99634.00;;;22.90;100.00
49723;BME280;43484;43.608;1.458;2022-07-29T01:12:11;99647.03;;;22.51;100.00
49723;BME280;43484;43.608;1.458;2022-07-29T01:14:40;99654.81;;;22.57;100.00
49723;BME280;43484;43.608;1.458;2022-07-29T01:18:00;99664.38;;;22.56;100.00
49723;BME280;43484;43.608;1.458;2022-07-29T01:31:31;99664.38;;;22.56;100.00
49723;BME280;43484;43.608;1.458;2022-07-29T01:34:07;99663.28;;;22.25;100.00
49723;BME280;43484;43.608;1.458;2022-07-29T01:36:45;99653.06;;;22.57;100.00
49723;BME280;43484;43.608;1.458;2022-07-29T01:39:34;99657.44;;;22.55;100.00
49723;BME280;43484;43.608;1.458;2022-07-29T01:45:00;99645.94;;;22.21;100.00
49723;BME280;43484;43.608;1.458;2022-07-29T01:47:40;99658.38;;;22.10;100.00
49723;BME280;43484;43.608;1.458;2022-07-29T01:50:14;99668.75;;;22.13;100.00
49723;BME280;43484;43.608;1.458;2022-07-29T01:52:56;99667.53;;;22.29;100.00
49723;BME280;43484;43.608;1.458;2022-07-29T01:55:37;99673.66;;;21.82;100.00
49723;BME280;43484;43.608;1.458;2022-07-29T01:58:05;99662.97;;;21.96;100.00
49723;BME280;43484;43.608;1.458;2022-07-29T02:00:34;99656.75;;;22.03;100.00
49723;BME280;43484;43.608;1.458;2022-07-29T02:03:05;99653.75;;;22.22;100.00
49723;BME280;43484;43.608;1.458;2022-07-29T02:05:35;99661.06;;;22.04;100.00
49723;BME280;43484;43.608;1.458;2022-07-29T02:08:04;99664.66;;;22.00;100.00
49723;BME280;43484;43.608;1.458;2022-07-29T02:10:33;99657.19;;;21.82;100.00
49723;BME280;43484;43.608;1.458;2022-07-29T02:13:02;99654.09;;;22.06;100.00
49723;BME280;43484;43.608;1.458;2022-07-29T02:15:32;99666.69;;;21.84;100.00
49723;BME280;43484;43.608;1.458;2022-07-29T02:18:09;99671.16;;;21.78;100.00
49723;BME280;43484;43.608;1.458;2022-07-29T02:20:38;99687.06;;;21.61;100.00
49723;BME280;43484;43.608;1.458;2022-07-29T02:23:07;99689.50;;;21.72;100.00
49723;BME280;43484;43.608;1.458;2022-07-29T02:25:37;99687.63;;;21.81;100.00
49723;BME280;43484;43.608;1.458;2022-07-29T02:28:06;99694.41;;;21.90;100.00
49723;BME280;43484;43.608;1.458;2022-07-29T02:30:34;99701.41;;;21.88;100.00
49723;BME280;43484;43.608;1.458;2022-07-29T02:33:03;99694.47;;;21.87;100.00
49723;BME280;43484;43.608;1.458;2022-07-29T02:35:31;99704.50;;;22.08;100.00
49723;BME280;43484;43.608;1.458;2022-07-29T02:38:01;99708.34;;;21.87;100.00
49723;BME280;43484;43.608;1.458;2022-07-29T02:40:48;99711.69;;;21.95;100.00
49723;BME280;43484;43.608;1.458;2022-07-29T02:43:17;99709.88;;;21.99;100.00
49723;BME280;43484;43.608;1.458;2022-07-29T02:45:47;99711.13;;;21.80;100.00
49723;BME280;43484;43.608;1.458;2022-07-29T02:48:26;99711.00;;;21.86;100.00
49723;BME280;43484;43.608;1.458;2022-07-29T02:51:01;99709.22;;;21.88;100.00
49723;BME280;43484;43.608;1.458;2022-07-29T02:53:33;99709.06;;;21.97;100.00
49723;BME280;43484;43.608;1.458;2022-07-29T02:56:07;99706.69;;;21.85;100.00
49723;BME280;43484;43.608;1.458;2022-07-29T02:58:40;99699.78;;;21.81;100.00
49723;BME280;43484;43.608;1.458;2022-07-29T03:01:23;99703.00;;;21.95;100.00
49723;BME280;43484;43.608;1.458;2022-07-29T03:03:53;99711.00;;;21.86;100.00
49723;BME280;43484;43.608;1.458;2022-07-29T03:06:22;99694.44;;;21.88;100.00
49723;BME280;43484;43.608;1.458;2022-07-29T03:09:03;99700.00;;;21.67;100.00
49723;BME280;43484;43.608;1.458;2022-07-29T03:11:38;99689.50;;;21.72;100.00
49723;BME280;43484;43.608;1.458;2022-07-29T03:14:19;99699.91;;;21.73;100.00
49723;BME280;43484;43.608;1.458;2022-07-29T03:16:48;99700.88;;;21.68;100.00
49723;BME280;43484;43.608;1.458;2022-07-29T03:19:16;99691.59;;;21.50;100.00
49723;BME280;43484;43.608;1.458;2022-07-29T03:21:43;99690.56;;;21.62;100.00
49723;BME280;43484;43.608;1.458;2022-07-29T03:24:09;99707.94;;;21.61;100.00
49723;BME280;43484;43.608;1.458;2022-07-29T03:26:36;99706.94;;;21.68;100.00
49723;BME280;43484;43.608;1.458;2022-07-29T03:29:03;99706.19;;;21.62;100.00
49723;BME280;43484;43.608;1.458;2022-07-29T03:31:30;99698.06;;;21.80;100.00
49723;BME280;43484;43.608;1.458;2022-07-29T03:33:58;99699.16;;;21.67;100.00
49723;BME280;43484;43.608;1.458;2022-07-29T03:36:25;99698.97;;;21.76;100.00
49723;BME280;43484;43.608;1.458;2022-07-29T03:38:52;99711.16;;;21.78;100.00
49723;BME280;43484;43.608;1.458;2022-07-29T03:41:19;99712.44;;;21.52;100.00
49723;BME280;43484;43.608;1.458;2022-07-29T03:43:49;99702.00;;;21.53;100.00
49723;BME280;43484;43.608;1.458;2022-07-29T03:46:23;99700.44;;;21.43;100.00
49723;BME280;43484;43.608;1.458;2022-07-29T03:48:52;99694.66;;;21.23;100.00
49723;BME280;43484;43.608;1.458;2022-07-29T03:51:22;99696.94;;;21.43;100.00
49723;BME280;43484;43.608;1.458;2022-07-29T03:54:00;99696.84;;;21.49;100.00
49723;BME280;43484;43.608;1.458;2022-07-29T03:56:38;99687.75;;;21.21;100.00
49723;BME280;43484;43.608;1.458;2022-07-29T03:59:06;99688.34;;;21.38;100.00
49723;BME280;43484;43.608;1.458;2022-07-29T04:01:34;99681.94;;;21.55;100.00
49723;BME280;43484;43.608;1.458;2022-07-29T04:04:01;99688.56;;;21.24;100.00
49723;BME280;43484;43.608;1.458;2022-07-29T04:06:28;99714.34;;;21.41;100.00
49723;BME280;43484;43.608;1.458;2022-07-29T04:08:55;99718.69;;;21.40;100.00
49723;BME280;43484;43.608;1.458;2022-07-29T04:11:22;99716.88;;;21.47;100.00
49723;BME280;43484;43.608;1.458;2022-07-29T04:13:48;99722.22;;;21.38;100.00
49723;BME280;43484;43.608;1.458;2022-07-29T04:16:16;99724.81;;;21.39;100.00
49723;BME280;43484;43.608;1.458;2022-07-29T04:18:43;99733.38;;;21.46;100.00
49723;BME280;43484;43.608;1.458;2022-07-29T04:21:09;99750.94;;;21.35;100.00
49723;BME280;43484;43.608;1.458;2022-07-29T04:23:36;99770.81;;;21.42;100.00
49723;BME280;43484;43.608;1.458;2022-07-29T04:26:19;99781.94;;;21.53;100.00
49723;BME280;43484;43.608;1.458;2022-07-29T04:28:47;99767.94;;;21.60;100.00
49723;BME280;43484;43.608;1.458;2022-07-29T04:31:13;99776.66;;;21.56;100.00
49723;BME280;43484;43.608;1.458;2022-07-29T04:33:40;99796.75;;;21.49;100.00
49723;BME280;43484;43.608;1.458;2022-07-29T04:36:07;99775.00;;;21.52;100.00
49723;BME280;43484;43.608;1.458;2022-07-29T04:38:53;99771.50;;;21.53;100.00
49723;BME280;43484;43.608;1.458;2022-07-29T04:41:21;99777.63;;;21.50;100.00
49723;BME280;43484;43.608;1.458;2022-07-29T04:43:48;99769.84;;;21.47;100.00
49723;BME280;43484;43.608;1.458;2022-07-29T04:46:15;99775.97;;;21.46;100.00
49723;BME280;43484;43.608;1.458;2022-07-29T04:48:42;99794.38;;;21.34;100.00
49723;BME280;43484;43.608;1.458;2022-07-29T04:51:11;99803.09;;;21.33;100.00
49723;BME280;43484;43.608;1.458;2022-07-29T04:53:38;99811.13;;;21.18;100.00
49723;BME280;43484;43.608;1.458;2022-07-29T04:56:04;99808.66;;;21.07;100.00
49723;BME280;43484;43.608;1.458;2022-07-29T04:58:34;99757.44;;;21.08;100.00
49723;BME280;43484;43.608;1.458;2022-07-29T05:01:00;99764.50;;;20.95;100.00
49723;BME280;43484;43.608;1.458;2022-07-29T05:03:27;99758.47;;;20.92;100.00
49723;BME280;43484;43.608;1.458;2022-07-29T05:05:54;99738.59;;;20.85;100.00
49723;BME280;43484;43.608;1.458;2022-07-29T05:08:21;99730.91;;;20.77;100.00
49723;BME280;43484;43.608;1.458;2022-07-29T05:10:49;99712.00;;;20.62;100.00
49723;BME280;43484;43.608;1.458;2022-07-29T05:13:16;99684.22;;;20.64;100.00
49723;BME280;43484;43.608;1.458;2022-07-29T05:15:42;99637.47;;;20.55;100.00
49723;BME280;43484;43.608;1.458;2022-07-29T05:18:09;99692.94;;;20.61;100.00
49723;BME280;43484;43.608;1.458;2022-07-29T05:20:37;99629.41;;;20.74;100.00
49723;BME280;43484;43.608;1.458;2022-07-29T05:23:04;99561.13;;;20.56;100.00
49723;BME280;43484;43.608;1.458;2022-07-29T05:25:31;99554.22;;;20.53;100.00
49723;BME280;43484;43.608;1.458;2022-07-29T05:28:11;99503.59;;;20.18;100.00
49723;BME280;43484;43.608;1.458;2022-07-29T05:30:37;99467.63;;;19.84;100.00
49723;BME280;43484;43.608;1.458;2022-07-29T05:33:04;99481.75;;;19.65;100.00
49723;BME280;43484;43.608;1.458;2022-07-29T05:35:31;99506.22;;;19.46;100.00
49723;BME280;43484;43.608;1.458;2022-07-29T05:37:57;99497.66;;;19.38;100.00
49723;BME280;43484;43.608;1.458;2022-07-29T05:40:24;99475.09;;;19.43;100.00
49723;BME280;43484;43.608;1.458;2022-07-29T05:42:51;99460.50;;;19.32;100.00
49723;BME280;43484;43.608;1.458;2022-07-29T05:45:18;99450.13;;;19.32;100.00
49723;BME280;43484;43.608;1.458;2022-07-29T05:47:44;99402.22;;;19.51;100.00
49723;BME280;43484;43.608;1.458;2022-07-29T05:50:11;99433.44;;;19.49;100.00
49723;BME280;43484;43.608;1.458;2022-07-29T05:52:38;99452.75;;;19.26;100.00
49723;BME280;43484;43.608;1.458;2022-07-29T05:55:05;99363.41;;;19.42;100.00
49723;BME280;43484;43.608;1.458;2022-07-29T05:57:32;99418.84;;;20.02;100.00
49723;BME280;43484;43.608;1.458;2022-07-29T05:59:59;99450.94;;;20.01;100.00
49723;BME280;43484;43.608;1.458;2022-07-29T06:02:26;99486.78;;;19.79;100.00
49723;BME280;43484;43.608;1.458;2022-07-29T06:04:52;99405.75;;;20.08;100.00
49723;BME280;43484;43.608;1.458;2022-07-29T06:07:20;99478.25;;;20.30;100.00
49723;BME280;43484;43.608;1.458;2022-07-29T06:09:47;99396.97;;;20.16;100.00
49723;BME280;43484;43.608;1.458;2022-07-29T06:12:14;99363.28;;;20.07;100.00
49723;BME280;43484;43.608;1.458;2022-07-29T06:14:40;99452.72;;;19.97;100.00
49723;BME280;43484;43.608;1.458;2022-07-29T06:17:07;99488.31;;;19.93;100.00
49723;BME280;43484;43.608;1.458;2022-07-29T06:19:34;99567.28;;;19.85;100.00
49723;BME280;43484;43.608;1.458;2022-07-29T06:22:02;99577.75;;;19.80;100.00
49723;BME280;43484;43.608;1.458;2022-07-29T06:24:29;99570.13;;;19.64;100.00
49723;BME280;43484;43.608;1.458;2022-07-29T06:26:56;99453.41;;;19.46;100.00
49723;BME280;43484;43.608;1.458;2022-07-29T06:29:23;99443.84;;;19.48;100.00
49723;BME280;43484;43.608;1.458;2022-07-29T06:31:50;99465.53;;;19.47;100.00
49723;BME280;43484;43.608;1.458;2022-07-29T06:34:16;99451.63;;;19.52;100.00
49723;BME280;43484;43.608;1.458;2022-07-29T06:36:44;99442.00;;;19.56;100.00
49723;BME280;43484;43.608;1.458;2022-07-29T06:39:11;99397.81;;;19.59;100.00
49723;BME280;43484;43.608;1.458;2022-07-29T06:41:38;99408.78;;;19.80;100.00
49723;BME280;43484;43.608;1.458;2022-07-29T06:44:05;99524.97;;;19.71;100.00
49723;BME280;43484;43.608;1.458;2022-07-29T06:46:31;99575.25;;;19.70;100.00
49723;BME280;43484;43.608;1.458;2022-07-29T06:48:59;99537.81;;;19.84;100.00
49723;BME280;43484;43.608;1.458;2022-07-29T06:51:28;99562.00;;;19.91;100.00
49723;BME280;43484;43.608;1.458;2022-07-29T06:53:56;99595.06;;;19.80;100.00
49723;BME280;43484;43.608;1.458;2022-07-29T06:56:30;99608.16;;;19.71;100.00
49723;BME280;43484;43.608;1.458;2022-07-29T06:59:05;99628.03;;;19.76;100.00
49723;BME280;43484;43.608;1.458;2022-07-29T07:01:32;99609.66;;;19.91;100.00
49723;BME280;43484;43.608;1.458;2022-07-29T07:03:59;99586.91;;;20.09;100.00
49723;BME280;43484;43.608;1.458;2022-07-29T07:06:26;99638.16;;;20.01;100.00
49723;BME280;43484;43.608;1.458;2022-07-29T07:08:53;99631.13;;;20.09;100.00
49723;BME280;43484;43.608;1.458;2022-07-29T07:11:20;99684.09;;;20.02;100.00
49723;BME280;43484;43.608;1.458;2022-07-29T07:13:47;99651.28;;;19.90;100.00
49723;BME280;43484;43.608;1.458;2022-07-29T07:16:14;99650.22;;;20.06;100.00
49723;BME280;43484;43.608;1.458;2022-07-29T07:18:41;99643.47;;;19.90;100.00
49723;BME280;43484;43.608;1.458;2022-07-29T07:21:07;99647.03;;;19.81;100.00
49723;BME280;43484;43.608;1.458;2022-07-29T07:23:34;99652.34;;;19.71;100.00
49723;BME280;43484;43.608;1.458;2022-07-29T07:26:01;99635.78;;;19.79;100.00
49723;BME280;43484;43.608;1.458;2022-07-29T07:28:27;99646.25;;;19.75;100.00
49723;BME280;43484;43.608;1.458;2022-07-29T07:30:54;99654.63;;;20.03;100.00
49723;BME280;43484;43.608;1.458;2022-07-29T07:33:21;99663.16;;;20.12;100.00
49723;BME280;43484;43.608;1.458;2022-07-29T07:35:47;99646.59;;;20.22;100.00
49723;BME280;43484;43.608;1.458;2022-07-29T07:38:14;99674.09;;;20.41;100.00
49723;BME280;43484;43.608;1.458;2022-07-29T07:40:41;99694.94;;;20.40;100.00
49723;BME280;43484;43.608;1.458;2022-07-29T07:43:08;99700.91;;;20.49;100.00
49723;BME280;43484;43.608;1.458;2022-07-29T07:45:34;99693.97;;;20.48;100.00
49723;BME280;43484;43.608;1.458;2022-07-29T07:48:04;99685.28;;;20.51;100.00
49723;BME280;43484;43.608;1.458;2022-07-29T07:50:31;99702.69;;;20.46;100.00
49723;BME280;43484;43.608;1.458;2022-07-29T07:52:58;99725.16;;;20.51;100.00
49723;BME280;43484;43.608;1.458;2022-07-29T07:55:26;99752.16;;;20.44;100.00
49723;BME280;43484;43.608;1.458;2022-07-29T07:57:53;99768.47;;;20.57;100.00
49723;BME280;43484;43.608;1.458;2022-07-29T08:00:21;99770.25;;;20.53;100.00
49723;BME280;43484;43.608;1.458;2022-07-29T08:02:49;99766.88;;;20.45;100.00
49723;BME280;43484;43.608;1.458;2022-07-29T08:05:16;99775.53;;;20.47;100.00
49723;BME280;43484;43.608;1.458;2022-07-29T08:07:46;99754.94;;;20.25;100.00
49723;BME280;43484;43.608;1.458;2022-07-29T08:10:15;99747.16;;;20.25;100.00
49723;BME280;43484;43.608;1.458;2022-07-29T08:13:05;99729.56;;;20.45;100.00
49723;BME280;43484;43.608;1.458;2022-07-29T08:15:32;99753.25;;;20.22;100.00
49723;BME280;43484;43.608;1.458;2022-07-29T08:18:00;99771.41;;;20.28;100.00
49723;BME280;43484;43.608;1.458;2022-07-29T08:20:34;99784.53;;;20.16;100.00
49723;BME280;43484;43.608;1.458;2022-07-29T08:23:02;99779.84;;;20.48;100.00
49723;BME280;43484;43.608;1.458;2022-07-29T08:25:31;99798.97;;;20.46;100.00
49723;BME280;43484;43.608;1.458;2022-07-29T08:28:00;99836.97;;;20.62;100.00
49723;BME280;43484;43.608;1.458;2022-07-29T08:30:27;99844.03;;;20.49;100.00
49723;BME280;43484;43.608;1.458;2022-07-29T08:32:53;99835.94;;;20.73;100.00
49723;BME280;43484;43.608;1.458;2022-07-29T08:35:23;99856.88;;;20.66;100.00
49723;BME280;43484;43.608;1.458;2022-07-29T08:37:53;99855.84;;;20.79;100.00
49723;BME280;43484;43.608;1.458;2022-07-29T08:40:20;99881.91;;;20.77;100.00
49723;BME280;43484;43.608;1.458;2022-07-29T08:42:58;99889.75;;;20.76;100.00
49723;BME280;43484;43.608;1.458;2022-07-29T08:45:27;99880.34;;;20.64;100.00
49723;BME280;43484;43.608;1.458;2022-07-29T08:47:55;99885.41;;;20.75;100.00
49723;BME280;43484;43.608;1.458;2022-07-29T08:50:25;99890.41;;;20.94;100.00
49723;BME280;43484;43.608;1.458;2022-07-29T08:52:55;99901.19;;;20.61;100.00
49723;BME280;43484;43.608;1.458;2022-07-29T08:55:25;99902.09;;;20.57;100.00
49723;BME280;43484;43.608;1.458;2022-07-29T08:57:54;99892.69;;;20.40;100.00
49723;BME280;43484;43.608;1.458;2022-07-29T09:00:23;99893.31;;;20.67;100.00
49723;BME280;43484;43.608;1.458;2022-07-29T09:02:56;99890.38;;;20.99;100.00
49723;BME280;43484;43.608;1.458;2022-07-29T09:05:24;99905.19;;;20.92;100.00
49723;BME280;43484;43.608;1.458;2022-07-29T09:07:52;99905.16;;;20.95;100.00
49723;BME280;43484;43.608;1.458;2022-07-29T09:10:19;99905.09;;;21.03;100.00
49723;BME280;43484;43.608;1.458;2022-07-29T09:12:45;99919.09;;;20.90;100.00
49723;BME280;43484;43.608;1.458;2022-07-29T09:15:12;99915.81;;;20.73;100.00
49723;BME280;43484;43.608;1.458;2022-07-29T09:17:44;99900.97;;;20.82;100.00
49723;BME280;43484;43.608;1.458;2022-07-29T09:20:14;99894.88;;;20.82;100.00
49723;BME280;43484;43.608;1.458;2022-07-29T09:22:41;99904.28;;;20.96;100.00
49723;BME280;43484;43.608;1.458;2022-07-29T09:25:08;99901.53;;;21.08;100.00
49723;BME280;43484;43.608;1.458;2022-07-29T09:27:38;99893.09;;;20.87;100.00
49723;BME280;43484;43.608;1.458;2022-07-29T09:30:08;99883.44;;;20.96;100.00
49723;BME280;43484;43.608;1.458;2022-07-29T09:33:00;99878.03;;;21.14;100.00
49723;BME280;43484;43.608;1.458;2022-07-29T09:35:28;99879.63;;;21.26;100.00
49723;BME280;43484;43.608;1.458;2022-07-29T09:37:55;99894.22;;;21.39;100.00
49723;BME280;43484;43.608;1.458;2022-07-29T09:40:24;99879.53;;;21.32;100.00
49723;BME280;43484;43.608;1.458;2022-07-29T09:42:52;99854.47;;;21.22;100.00
49723;BME280;43484;43.608;1.458;2022-07-29T09:45:31;99861.44;;;21.20;100.00
49723;BME280;43484;43.608;1.458;2022-07-29T09:47:59;99860.75;;;21.07;100.00
49723;BME280;43484;43.608;1.458;2022-07-29T09:50:39;99852.88;;;21.12;100.00
49723;BME280;43484;43.608;1.458;2022-07-29T09:53:06;99859.03;;;21.06;100.00
49723;BME280;43484;43.608;1.458;2022-07-29T09:55:49;99858.16;;;21.07;100.00
49723;BME280;43484;43.608;1.458;2022-07-29T09:58:19;99887.50;;;21.23;100.00
49723;BME280;43484;43.608;1.458;2022-07-29T10:00:49;99881.59;;;21.07;100.00
49723;BME280;43484;43.608;1.458;2022-07-29T10:03:16;99886.63;;;21.23;100.00
49723;BME280;43484;43.608;1.458;2022-07-29T10:05:44;99902.03;;;21.39;100.00
49723;BME280;43484;43.608;1.458;2022-07-29T10:08:12;99937.38;;;21.61;100.00
49723;BME280;43484;43.608;1.458;2022-07-29T10:10:42;99954.75;;;21.61;100.00
49723;BME280;43484;43.608;1.458;2022-07-29T10:13:13;99962.50;;;21.67;100.00
49723;BME280;43484;43.608;1.458;2022-07-29T10:15:43;99964.13;;;21.78;100.00
49723;BME280;43484;43.608;1.458;2022-07-29T10:18:13;99966.72;;;21.78;100.00
49723;BME280;43484;43.608;1.458;2022-07-29T10:20:41;99958.56;;;22.01;100.00
49723;BME280;43484;43.608;1.458;2022-07-29T10:23:08;99968.75;;;22.17;100.00
49723;BME280;43484;43.608;1.458;2022-07-29T10:25:36;99962.09;;;21.98;100.00
49723;BME280;43484;43.608;1.458;2022-07-29T10:28:05;99967.66;;;22.32;100.00
49723;BME280;43484;43.608;1.458;2022-07-29T10:30:32;99964.00;;;22.44;100.00
49723;BME280;43484;43.608;1.458;2022-07-29T10:44:21;99953.59;;;22.91;100.00
49723;BME280;43484;43.608;1.458;2022-07-29T10:46:49;99954.50;;;22.90;100.00
49723;BME280;43484;43.608;1.458;2022-07-29T10:49:18;99956.16;;;22.94;100.00
49723;BME280;43484;43.608;1.458;2022-07-29T10:51:57;99953.31;;;23.04;100.00
49723;BME280;43484;43.608;1.458;2022-07-29T10:59:37;99928.69;;;23.17;100.00
49723;BME280;43484;43.608;1.458;2022-07-29T11:02:57;99930.63;;;23.08;100.00
49723;BME280;43484;43.608;1.458;2022-07-29T11:05:20;99933.56;;;22.91;100.00
49723;BME280;43484;43.608;1.458;2022-07-29T11:10:47;99930.53;;;23.12;100.00
49723;BME280;43484;43.608;1.458;2022-07-29T11:13:51;99924.00;;;23.34;100.00
49723;BME280;43484;43.608;1.458;2022-07-29T11:16:22;99926.63;;;23.36;100.00
49723;BME280;43484;43.608;1.458;2022-07-29T11:21:42;99923.69;;;23.49;100.00
49723;BME280;43484;43.608;1.458;2022-07-29T11:24:22;99922.41;;;23.69;100.00
49723;BME280;43484;43.608;1.458;2022-07-29T11:27:15;99927.44;;;23.78;100.00
49723;BME280;43484;43.608;1.458;2022-07-29T11:29:56;99925.84;;;23.31;100.00
49723;BME280;43484;43.608;1.458;2022-07-29T11:32:24;99918.97;;;23.24;100.00
49723;BME280;43484;43.608;1.458;2022-07-29T11:37:47;99924.59;;;23.48;100.00
49723;BME280;43484;43.608;1.458;2022-07-29T11:40:33;99922.16;;;23.39;100.00
49723;BME280;43484;43.608;1.458;2022-07-29T11:43:01;99916.44;;;23.21;100.00
49723;BME280;43484;43.608;1.458;2022-07-29T11:45:46;99912.44;;;23.44;100.00
49723;BME280;43484;43.608;1.458;2022-07-29T11:48:17;99923.00;;;23.81;100.00
49723;BME280;43484;43.608;1.458;2022-07-29T11:50:58;99908.03;;;23.48;100.00
49723;BME280;43484;43.608;1.458;2022-07-29T11:53:25;99904.03;;;23.32;100.00
49723;BME280;43484;43.608;1.458;2022-07-29T11:55:58;99903.28;;;23.65;100.00
49723;BME280;43484;43.608;1.458;2022-07-29T11:58:26;99896.88;;;23.78;100.00
49723;BME280;43484;43.608;1.458;2022-07-29T12:00:54;99897.03;;;23.72;100.00
49723;BME280;43484;43.608;1.458;2022-07-29T12:03:26;99896.34;;;23.64;100.00
49723;BME280;43484;43.608;1.458;2022-07-29T12:06:03;99894.31;;;23.77;100.00
49723;BME280;43484;43.608;1.458;2022-07-29T12:08:41;99891.88;;;23.69;100.00
49723;BME280;43484;43.608;1.458;2022-07-29T12:11:19;99899.06;;;23.98;100.00
49723;BME280;43484;43.608;1.458;2022-07-29T12:13:51;99899.50;;;24.15;100.00
49723;BME280;43484;43.608;1.458;2022-07-29T12:16:19;99898.13;;;24.00;100.00
49723;BME280;43484;43.608;1.458;2022-07-29T12:18:59;99901.25;;;24.16;100.00
49723;BME280;43484;43.608;1.458;2022-07-29T12:21:44;99893.84;;;24.33;100.00
49723;BME280;43484;43.608;1.458;2022-07-29T12:24:22;99886.94;;;24.29;100.00
49723;BME280;43484;43.608;1.458;2022-07-29T12:26:57;99901.06;;;24.23;100.00
49723;BME280;43484;43.608;1.458;2022-07-29T12:29:25;99899.22;;;24.60;100.00
49723;BME280;43484;43.608;1.458;2022-07-29T12:32:01;99904.78;;;24.82;100.00
49723;BME280;43484;43.608;1.458;2022-07-29T12:34:29;99907.97;;;24.93;100.00
49723;BME280;43484;43.608;1.458;2022-07-29T12:36:56;99903.19;;;25.07;100.00
49723;BME280;43484;43.608;1.458;2022-07-29T12:39:23;99907.50;;;25.10;100.00
49723;BME280;43484;43.608;1.458;2022-07-29T12:41:53;99903.25;;;25.36;100.00
49723;BME280;43484;43.608;1.458;2022-07-29T12:44:53;99914.03;;;25.26;100.00
49723;BME280;43484;43.608;1.458;2022-07-29T12:47:20;99918.03;;;25.39;100.00
49723;BME280;43484;43.608;1.458;2022-07-29T12:49:50;99922.53;;;25.64;100.00
49723;BME280;43484;43.608;1.458;2022-07-29T12:52:31;99921.59;;;25.67;100.00
49723;BME280;43484;43.608;1.458;2022-07-29T12:54:59;99920.16;;;25.84;100.00
49723;BME280;43484;43.608;1.458;2022-07-29T12:57:27;99922.06;;;25.79;100.00
49723;BME280;43484;43.608;1.458;2022-07-29T13:00:11;99911.50;;;25.81;100.00
49723;BME280;43484;43.608;1.458;2022-07-29T13:02:40;99918.81;;;25.71;100.00
49723;BME280;43484;43.608;1.458;2022-07-29T13:05:09;99915.50;;;25.92;100.00
49723;BME280;43484;43.608;1.458;2022-07-29T13:07:36;99909.97;;;25.74;100.00
49723;BME280;43484;43.608;1.458;2022-07-29T13:10:21;99912.22;;;25.58;100.00
49723;BME280;43484;43.608;1.458;2022-07-29T13:13:09;99908.22;;;25.45;100.00
49723;BME280;43484;43.608;1.458;2022-07-29T13:15:38;99911.56;;;25.52;100.00
49723;BME280;43484;43.608;1.458;2022-07-29T13:18:29;99910.31;;;25.33;100.00
49723;BME280;43484;43.608;1.458;2022-07-29T13:20:56;99907.91;;;25.56;100.00
49723;BME280;43484;43.608;1.458;2022-07-29T13:23:23;99907.53;;;25.68;100.00
49723;BME280;43484;43.608;1.458;2022-07-29T13:25:51;99912.66;;;25.72;100.00
49723;BME280;43484;43.608;1.458;2022-07-29T13:28:19;99901.34;;;25.70;100.00
49723;BME280;43484;43.608;1.458;2022-07-29T13:30:47;99909.69;;;25.83;100.00
49723;BME280;43484;43.608;1.458;2022-07-29T13:33:14;99909.13;;;25.73;100.00
49723;BME280;43484;43.608;1.458;2022-07-29T13:35:40;99911.44;;;25.82;100.00
49723;BME280;43484;43.608;1.458;2022-07-29T13:38:07;99915.16;;;25.77;100.00
49723;BME280;43484;43.608;1.458;2022-07-29T13:40:34;99934.81;;;25.62;100.00
49723;BME280;43484;43.608;1.458;2022-07-29T13:43:01;99936.50;;;25.36;100.00
49723;BME280;43484;43.608;1.458;2022-07-29T13:45:29;99943.97;;;25.78;100.00